Time;durP1;ratioP1;P1;durP2;ratioP2;P2;SDS_P1;SDS_P2;PMS_P1;PMS_P2;Temp;Humidity;BMP_temperature;BMP_pressure;BME280_temperature;BME280_humidity;BME280_pressure;Samples;Min_cycle;Max_cycle;Signal;HPM_P1;HPM_P2
2023/09/13 00:01:07;;;;;;;27.33;24.35;;;;;;;21.49;76.53;101196.31;5011394;28;20105;-70
2023/09/13 00:03:33;;;;;;;28.35;24.80;;;;;;;21.45;76.69;101195.28;5019531;28;20380;-70
2023/09/13 00:05:59;;;;;;;28.35;23.27;;;;;;;21.40;77.01;101195.44;5029771;28;20025;-70
2023/09/13 00:08:24;;;;;;;26.85;23.75;;;;;;;21.38;77.01;101192.94;5031163;28;20124;-70
2023/09/13 00:10:49;;;;;;;26.70;23.75;;;;;;;21.38;77.14;101187.28;5030593;28;20026;-70
2023/09/13 00:13:15;;;;;;;26.50;23.52;;;;;;;21.39;77.16;101185.28;5030670;28;20049;-70
2023/09/13 00:15:44;;;;;;;26.92;24.08;;;;;;;21.34;77.48;101186.25;5035064;28;20029;-70
2023/09/13 00:18:13;;;;;;;30.05;24.58;;;;;;;21.36;77.12;101185.91;5034604;28;20029;-70
2023/09/13 00:20:39;;;;;;;28.92;23.60;;;;;;;21.40;77.05;101187.78;5028829;28;20535;-70
2023/09/13 00:23:05;;;;;;;26.70;23.88;;;;;;;21.44;76.75;101190.81;5028148;28;20026;-70
2023/09/13 00:25:31;;;;;;;28.05;24.92;;;;;;;21.43;76.50;101186.31;5034211;28;20036;-70
2023/09/13 00:27:56;;;;;;;28.83;24.52;;;;;;;21.36;76.53;101188.75;5035283;28;20029;-70
2023/09/13 00:30:21;;;;;;;29.15;25.98;;;;;;;21.31;76.49;101193.31;5034317;28;20033;-70
2023/09/13 00:32:47;;;;;;;29.02;25.45;;;;;;;21.31;76.53;101196.16;5033611;28;20044;-70
2023/09/13 00:35:12;;;;;;;28.85;25.75;;;;;;;21.33;76.39;101193.03;5025497;28;20041;-70
2023/09/13 00:37:40;;;;;;;31.75;25.95;;;;;;;21.25;76.84;101185.28;5023668;28;20100;-70
2023/09/13 00:40:06;;;;;;;30.45;25.80;;;;;;;21.24;76.83;101195.75;5032093;28;20029;-70
2023/09/13 00:42:31;;;;;;;31.27;24.42;;;;;;;21.29;76.56;101195.63;5034655;28;20025;-69
2023/09/13 00:44:56;;;;;;;31.10;26.08;;;;;;;21.21;76.79;101196.38;5034491;28;20040;-70
2023/09/13 00:47:25;;;;;;;31.08;26.77;;;;;;;21.23;76.97;101184.78;5034017;28;20052;-70
2023/09/13 00:49:50;;;;;;;31.73;26.85;;;;;;;21.28;76.60;101193.13;5034752;28;20021;-69
2023/09/13 00:52:16;;;;;;;31.65;26.38;;;;;;;21.23;76.65;101191.25;5031124;28;20797;-70
2023/09/13 00:54:42;;;;;;;29.20;25.83;;;;;;;21.24;76.33;101197.72;5018138;28;20124;-70
2023/09/13 00:57:10;;;;;;;29.60;26.38;;;;;;;21.17;76.67;101195.31;5027314;28;20059;-70
2023/09/13 00:59:35;;;;;;;31.80;28.40;;;;;;;21.14;76.59;101197.94;5025924;28;20476;-70
2023/09/13 01:02:00;;;;;;;34.75;27.27;;;;;;;21.15;76.62;101191.16;5030784;28;20032;-70
2023/09/13 01:04:26;;;;;;;32.63;28.55;;;;;;;21.11;76.73;101190.97;5032073;28;20060;-70
2023/09/13 01:06:52;;;;;;;37.53;29.58;;;;;;;21.06;76.85;101185.41;5030800;28;20538;-70
2023/09/13 01:09:18;;;;;;;33.75;29.15;;;;;;;21.01;76.98;101192.00;5033093;28;20047;-70
2023/09/13 01:11:44;;;;;;;38.15;30.52;;;;;;;21.01;77.29;101188.34;5034677;28;20472;-69
2023/09/13 01:14:10;;;;;;;35.53;31.05;;;;;;;20.99;77.44;101187.84;5033425;28;20105;-70
2023/09/13 01:16:38;;;;;;;38.58;31.40;;;;;;;20.99;77.51;101187.84;5033976;28;20112;-70
2023/09/13 01:19:41;;;;;;;38.65;31.27;;;;;;;21.12;77.08;101177.69;5034234;28;20033;-70
2023/09/13 01:22:25;;;;;;;38.58;31.10;;;;;;;21.13;76.78;101185.81;5028255;28;20033;-70
2023/09/13 01:25:14;;;;;;;37.60;31.30;;;;;;;21.02;77.20;101187.19;5033051;28;20037;-70
2023/09/13 01:28:03;;;;;;;38.50;31.38;;;;;;;21.04;77.12;101182.09;5031100;28;20041;-70
2023/09/13 01:30:29;;;;;;;37.28;30.30;;;;;;;21.01;77.29;101185.53;5033337;28;20025;-70
2023/09/13 01:32:56;;;;;;;39.53;32.30;;;;;;;21.01;77.22;101191.19;5033155;28;20022;-70
2023/09/13 01:35:21;;;;;;;40.38;32.42;;;;;;;20.95;77.19;101193.28;5033227;28;20087;-69
2023/09/13 01:37:47;;;;;;;37.88;32.55;;;;;;;20.97;76.92;101190.13;5031849;28;20079;-70
2023/09/13 01:40:12;;;;;;;40.42;32.65;;;;;;;20.95;77.14;101198.09;5017928;28;20501;-70
2023/09/13 01:42:40;;;;;;;39.13;33.13;;;;;;;20.98;76.88;101203.09;5014703;28;20120;-70
2023/09/13 01:45:11;;;;;;;42.42;34.03;;;;;;;20.96;77.03;101196.94;5033727;28;20087;-70
2023/09/13 01:47:38;;;;;;;38.95;33.22;;;;;;;20.93;77.06;101194.75;5032887;28;20387;-69
2023/09/13 01:50:04;;;;;;;42.17;34.95;;;;;;;20.93;76.75;101203.22;5031733;28;20194;-69
2023/09/13 01:52:30;;;;;;;44.95;36.70;;;;;;;20.89;77.06;101208.63;5033417;28;20036;-69
2023/09/13 01:54:55;;;;;;;46.78;37.42;;;;;;;20.80;76.94;101208.53;5030942;28;20477;-70
2023/09/13 01:57:20;;;;;;;48.00;38.70;;;;;;;20.88;77.12;101212.63;5021407;28;20037;-70
2023/09/13 01:59:46;;;;;;;47.88;38.30;;;;;;;20.88;77.00;101215.44;5012898;28;20033;-69
2023/09/13 02:02:12;;;;;;;48.63;39.08;;;;;;;20.80;77.20;101213.34;5013527;28;20033;-70
2023/09/13 02:04:37;;;;;;;46.22;37.55;;;;;;;20.88;77.05;101211.78;5012697;28;20017;-70
2023/09/13 02:07:03;;;;;;;50.10;39.63;;;;;;;20.82;77.26;101217.50;5012705;28;20030;-70
2023/09/13 02:09:28;;;;;;;46.15;37.58;;;;;;;20.86;77.13;101223.38;5013184;28;20052;-70
2023/09/13 02:11:54;;;;;;;51.35;40.63;;;;;;;20.80;77.20;101217.00;5017577;28;20446;-69
2023/09/13 02:14:19;;;;;;;50.47;40.35;;;;;;;20.81;77.58;101232.78;5029330;28;20044;-69
2023/09/13 02:16:44;;;;;;;49.17;40.60;;;;;;;20.85;77.26;101235.81;5032733;28;20033;-69
2023/09/13 02:19:16;;;;;;;50.03;41.65;;;;;;;20.87;77.43;101232.66;5032081;28;20022;-69
2023/09/13 02:21:41;;;;;;;54.17;42.40;;;;;;;20.87;77.27;101227.88;5033021;28;20018;-69
2023/09/13 02:24:06;;;;;;;56.17;44.28;;;;;;;20.86;77.47;101229.00;5032863;28;20468;-70
2023/09/13 02:26:32;;;;;;;55.75;43.25;;;;;;;20.82;77.50;101234.44;5031612;28;20389;-69
2023/09/13 02:29:00;;;;;;;58.28;45.15;;;;;;;20.76;77.79;101234.88;5031997;28;20033;-70
2023/09/13 02:31:26;;;;;;;58.78;44.97;;;;;;;;;;5023217;28;20144;-70
2023/09/13 02:33:53;;;;;;;62.00;47.88;;;;;;;20.70;78.11;101231.31;5013119;28;20025;-70
2023/09/13 02:36:18;;;;;;;60.65;46.40;;;;;;;20.74;77.95;101232.34;5011678;28;20041;-69
2023/09/13 02:38:44;;;;;;;66.25;48.60;;;;;;;20.75;78.01;101234.03;5015306;28;20033;-69
2023/09/13 02:41:09;;;;;;;67.40;50.20;;;;;;;20.74;78.04;101235.16;5023539;28;20025;-69
2023/09/13 02:43:47;;;;;;;65.40;48.13;;;;;;;20.68;78.45;101238.44;5032048;28;20044;-70
2023/09/13 02:46:15;;;;;;;66.82;49.45;;;;;;;20.66;78.18;101238.72;5031811;28;20032;-69
2023/09/13 02:48:40;;;;;;;67.13;50.00;;;;;;;20.71;78.24;101229.31;5031692;28;20498;-69
2023/09/13 02:51:12;;;;;;;69.10;51.53;;;;;;;20.65;78.54;101228.59;5031974;28;20025;-69
2023/09/13 02:53:37;;;;;;;65.27;48.90;;;;;;;20.72;78.10;101234.66;5031818;28;20112;-70
2023/09/13 02:56:09;;;;;;;67.72;48.67;;;;;;;20.71;78.37;101237.78;5025142;28;20391;-70
2023/09/13 02:58:34;;;;;;;65.82;48.90;;;;;;;20.71;78.12;101235.81;5020656;28;20026;-69
2023/09/13 03:01:03;;;;;;;67.03;48.33;;;;;;;20.63;78.16;101238.50;5011510;28;20550;-69
2023/09/13 03:03:30;;;;;;;62.88;48.50;;;;;;;20.60;78.18;101237.16;5012210;28;20618;-69
2023/09/13 03:06:05;;;;;;;64.53;46.17;;;;;;;20.58;78.30;101239.44;5011909;28;20053;-70
2023/09/13 03:08:33;;;;;;;62.97;47.55;;;;;;;20.58;78.06;101245.09;5011122;28;20049;-70
2023/09/13 03:11:18;;;;;;;63.13;46.45;;;;;;;20.55;78.41;101245.69;5012188;28;20108;-70
2023/09/13 03:13:44;;;;;;;64.32;47.05;;;;;;;20.52;78.44;101246.34;5028293;28;20049;-70
2023/09/13 03:16:17;;;;;;;63.40;46.25;;;;;;;20.57;78.29;101249.06;5015819;28;20034;-70
2023/09/13 03:18:44;;;;;;;59.22;47.00;;;;;;;20.57;78.25;101241.44;5013700;28;20038;-70
2023/09/13 03:21:11;;;;;;;60.83;46.88;;;;;;;20.52;78.47;101250.00;5029245;28;20040;-69
2023/09/13 03:23:38;;;;;;;62.47;46.10;;;;;;;20.61;78.24;101255.75;5011537;28;20539;-70
2023/09/13 03:26:21;;;;;;;66.90;47.75;;;;;;;20.55;78.43;101248.50;5012055;28;20044;-69
2023/09/13 03:28:48;;;;;;;64.53;46.42;;;;;;;20.54;78.23;101250.50;5009703;28;20083;-70
2023/09/13 03:31:16;;;;;;;63.10;45.38;;;;;;;20.55;78.13;101249.38;5014974;28;20030;-69
2023/09/13 03:33:43;;;;;;;65.40;46.65;;;;;;;20.50;78.56;101251.44;5014200;28;20034;-70
2023/09/13 03:36:10;;;;;;;62.67;46.35;;;;;;;20.50;78.40;101257.09;5028070;28;20021;-69
2023/09/13 03:38:40;;;;;;;63.80;46.97;;;;;;;20.46;78.44;101264.47;5031123;28;20034;-69
2023/09/13 03:41:09;;;;;;;62.13;45.10;;;;;;;20.49;78.47;101266.69;5031017;28;20094;-69
2023/09/13 03:43:35;;;;;;;65.75;47.13;;;;;;;20.47;78.44;101266.97;5030948;28;20025;-69
2023/09/13 03:46:01;;;;;;;68.55;48.17;;;;;;;20.48;78.69;101262.19;5031225;28;20534;-69
2023/09/13 03:48:29;;;;;;;65.60;47.08;;;;;;;20.46;78.69;101265.28;5029716;28;20025;-69
2023/09/13 03:50:54;;;;;;;67.82;47.80;;;;;;;20.41;78.73;101256.09;5028786;28;20495;-69
2023/09/13 03:53:19;;;;;;;65.88;46.45;;;;;;;20.42;78.89;101257.75;5018093;28;20013;-70
2023/09/13 03:55:44;;;;;;;62.25;46.20;;;;;;;20.45;78.43;101263.63;5011369;28;20070;-69
2023/09/13 03:58:10;;;;;;;62.45;46.80;;;;;;;20.41;78.84;101264.56;5010598;28;20636;-69
2023/09/13 04:00:36;;;;;;;63.20;46.80;;;;;;;20.42;78.79;101269.03;5011500;28;20030;-69
2023/09/13 04:03:02;;;;;;;66.65;47.92;;;;;;;20.43;78.58;101262.25;5010640;28;20469;-69
2023/09/13 04:05:27;;;;;;;65.57;47.85;;;;;;;20.48;78.28;101259.38;5011535;28;20036;-69
2023/09/13 04:07:52;;;;;;;63.80;48.00;;;;;;;20.41;78.70;101254.13;5011399;28;20121;-69
2023/09/13 04:10:18;;;;;;;66.45;46.85;;;;;;;20.42;78.62;101252.97;5029780;28;20507;-69
2023/09/13 04:12:43;;;;;;;61.55;45.42;;;;;;;20.42;78.33;101254.94;5030768;28;20427;-69
2023/09/13 04:15:09;;;;;;;65.30;46.63;;;;;;;20.42;78.29;101249.31;5030555;28;20033;-69
2023/09/13 04:17:34;;;;;;;64.60;46.47;;;;;;;20.40;78.52;101251.63;5030212;28;20025;-69
2023/09/13 04:19:59;;;;;;;64.07;45.58;;;;;;;20.46;78.74;101258.81;5031230;28;20029;-69
2023/09/13 04:22:25;;;;;;;60.15;45.75;;;;;;;20.37;78.49;101263.50;5030263;28;20048;-69
2023/09/13 04:24:50;;;;;;;60.72;44.40;;;;;;;20.43;78.26;101265.91;5030394;28;20489;-69
2023/09/13 04:27:25;;;;;;;62.17;44.67;;;;;;;20.41;78.53;101261.75;5019770;28;20833;-69
2023/09/13 04:29:54;;;;;;;63.67;44.65;;;;;;;20.34;78.42;101262.97;5010661;28;20469;-69
2023/09/13 04:32:23;;;;;;;60.10;43.63;;;;;;;20.32;78.64;101265.28;5010793;28;20080;-69
2023/09/13 04:34:49;;;;;;;59.60;44.13;;;;;;;20.34;78.35;101268.59;5011092;28;20080;-69
2023/09/13 04:37:15;;;;;;;63.58;43.60;;;;;;;20.32;78.31;101270.91;5014603;28;20034;-69
2023/09/13 04:39:44;;;;;;;61.53;44.05;;;;;;;20.35;78.36;101275.91;5030417;28;20021;-69
2023/09/13 04:42:10;;;;;;;61.72;43.58;;;;;;;20.29;78.76;101282.78;5028869;28;20115;-69
2023/09/13 04:44:35;;;;;;;62.63;43.00;;;;;;;20.34;78.48;101267.78;5015180;28;20121;-69
2023/09/13 04:47:01;;;;;;;60.13;44.15;;;;;;;20.30;79.05;101261.06;5022408;28;20104;-69
2023/09/13 04:49:26;;;;;;;62.47;43.17;;;;;;;20.26;78.49;101272.13;5025721;28;20025;-69
2023/09/13 04:51:52;;;;;;;61.25;42.83;;;;;;;20.33;78.23;101266.09;5016707;28;20038;-69
2023/09/13 04:54:18;;;;;;;59.78;43.38;;;;;;;20.33;78.39;101263.28;5021919;28;20029;-69
2023/09/13 04:56:43;;;;;;;55.88;41.83;;;;;;;20.29;78.94;101263.06;5029658;28;20041;-69
2023/09/13 04:59:09;;;;;;;58.10;41.78;;;;;;;20.30;78.54;101267.53;5029673;28;20026;-69
2023/09/13 05:01:34;;;;;;;63.40;43.33;;;;;;;20.24;78.61;101270.75;5027459;28;20041;-69
2023/09/13 05:03:59;;;;;;;59.92;42.92;;;;;;;20.23;78.57;101272.75;5029056;28;20029;-69
2023/09/13 05:06:25;;;;;;;59.38;43.33;;;;;;;20.19;78.47;101279.31;5033109;28;20029;-69
2023/09/13 05:08:52;;;;;;;54.55;41.58;;;;;;;20.26;78.40;101277.75;5033690;28;20033;-69
2023/09/13 05:11:18;;;;;;;54.35;40.30;;;;;;;20.23;78.57;101284.00;5020943;28;20121;-69
2023/09/13 05:13:47;;;;;;;57.03;42.00;;;;;;;20.17;78.62;101290.91;5013447;28;20493;-69
2023/09/13 05:16:13;;;;;;;56.97;40.92;;;;;;;20.18;78.41;101281.28;5011268;28;20469;-68
2023/09/13 05:18:39;;;;;;;56.20;41.17;;;;;;;20.18;78.45;101284.09;5028861;28;20065;-69
2023/09/13 05:21:04;;;;;;;53.67;40.13;;;;;;;20.16;78.25;101288.38;5032021;28;20071;-70
2023/09/13 05:23:29;;;;;;;52.55;39.58;;;;;;;20.16;78.19;101275.13;5029952;28;20102;-71
2023/09/13 05:25:55;;;;;;;51.15;40.10;;;;;;;20.14;78.14;101283.06;5030138;28;20445;-69
2023/09/13 05:28:21;;;;;;;54.75;39.70;;;;;;;20.15;78.29;101286.69;5028705;28;20037;-70
2023/09/13 05:30:48;;;;;;;52.28;39.50;;;;;;;20.19;77.85;101285.78;5026504;28;20376;-71
2023/09/13 05:33:13;;;;;;;50.47;39.03;;;;;;;20.16;77.86;101277.97;5013332;28;20165;-69
2023/09/13 05:35:39;;;;;;;49.10;38.28;;;;;;;20.19;77.99;101296.22;5012001;28;20475;-69
2023/09/13 05:38:04;;;;;;;58.53;41.05;;;;;;;20.14;77.93;101285.03;5023719;28;20034;-71
2023/09/13 05:40:30;;;;;;;54.10;40.10;;;;;;;20.13;78.17;101297.47;5015295;28;20030;-70
2023/09/13 05:42:56;;;;;;;52.40;40.28;;;;;;;20.16;78.06;101299.63;5022985;28;20033;-68
2023/09/13 05:45:23;;;;;;;54.00;40.72;;;;;;;20.11;78.19;101304.22;5031807;28;20029;-69
2023/09/13 05:47:49;;;;;;;50.22;36.13;;;;;;;20.19;78.99;101310.31;5031317;28;20033;-69
2023/09/13 05:50:17;;;;;;;33.78;23.08;;;;;;;20.37;80.95;101309.44;5017345;28;20036;-69
2023/09/13 05:52:43;;;;;;;34.28;27.45;;;;;;;20.44;79.44;101306.25;5012394;28;20112;-70
2023/09/13 05:55:09;;;;;;;32.17;24.73;;;;;;;20.47;80.15;101309.25;5012978;28;20510;-69
2023/09/13 05:57:34;;;;;;;42.75;32.13;;;;;;;20.48;78.27;101321.41;5026502;28;20053;-69
2023/09/13 05:59:59;;;;;;;44.42;32.08;;;;;;;20.50;78.05;101316.31;5026915;28;20029;-70
2023/09/13 06:02:25;;;;;;;47.72;36.35;;;;;;;20.43;77.45;101321.47;5020898;28;20115;-69
2023/09/13 06:04:50;;;;;;;41.25;31.02;;;;;;;20.45;77.44;101327.66;5032390;28;20103;-69
2023/09/13 06:07:16;;;;;;;48.15;36.85;;;;;;;20.40;77.70;101328.56;5031942;28;20481;-69
2023/09/13 06:09:41;;;;;;;49.70;35.25;;;;;;;20.39;77.38;101332.50;5031165;28;20514;-69
2023/09/13 06:12:07;;;;;;;37.08;28.52;;;;;;;20.57;78.42;101328.03;5030809;28;20041;-71
2023/09/13 06:14:35;;;;;;;45.95;34.45;;;;;;;20.50;78.14;101339.69;5030107;28;20036;-70
2023/09/13 06:17:00;;;;;;;39.10;31.52;;;;;;;20.54;77.06;101340.75;5024263;28;20033;-70
2023/09/13 06:19:28;;;;;;;42.53;34.35;;;;;;;20.49;77.15;101340.00;5028727;28;20041;-69
2023/09/13 06:21:53;;;;;;;48.03;36.05;;;;;;;20.42;77.50;101336.72;5031223;28;20131;-69
2023/09/13 06:24:19;;;;;;;47.15;35.55;;;;;;;20.42;77.71;101348.00;5019487;28;20112;-69
2023/09/13 06:26:44;;;;;;;44.05;34.15;;;;;;;20.42;77.32;101348.81;5026776;28;20144;-72
2023/09/13 06:29:10;;;;;;;44.00;33.55;;;;;;;20.38;77.45;101352.56;5019866;28;20472;-66
2023/09/13 06:31:35;;;;;;;39.95;31.50;;;;;;;20.49;77.77;101359.75;5025637;28;20447;-67
2023/09/13 06:34:03;;;;;;;43.42;33.00;;;;;;;20.43;77.45;101355.28;5015802;28;20037;-66
2023/09/13 06:36:28;;;;;;;36.55;27.13;;;;;;;20.54;77.83;101363.31;5008507;28;20524;-67
2023/09/13 06:38:54;;;;;;;36.95;28.10;;;;;;;20.58;77.38;101360.72;5012027;28;20112;-67
2023/09/13 06:41:19;;;;;;;42.33;31.38;;;;;;;20.50;77.37;101367.91;5012670;28;20052;-66
2023/09/13 06:43:47;;;;;;;34.45;26.00;;;;;;;20.66;77.50;101374.09;5019198;28;20033;-65
2023/09/13 06:46:12;;;;;;;32.15;25.40;;;;;;;20.67;77.21;101366.47;5026376;28;20064;-66
2023/09/13 06:48:38;;;;;;;39.33;31.48;;;;;;;20.56;77.11;101368.66;5028198;28;20527;-66
2023/09/13 06:51:03;;;;;;;34.05;25.27;;;;;;;20.68;77.11;101380.28;5020063;28;20100;-67
2023/09/13 06:53:29;;;;;;;36.85;29.20;;;;;;;20.55;77.25;101381.06;5022037;28;20033;-68
2023/09/13 06:55:54;;;;;;;34.47;27.27;;;;;;;20.60;76.85;101378.19;5012004;28;20129;-68
2023/09/13 06:58:22;;;;;;;33.85;26.13;;;;;;;20.66;76.80;101385.38;5030066;28;20060;-69
2023/09/13 07:00:48;;;;;;;32.55;24.45;;;;;;;20.73;77.09;101385.84;5028478;28;20064;-69
2023/09/13 07:03:13;;;;;;;39.13;30.08;;;;;;;20.67;76.60;101389.03;5036931;28;20049;-67
2023/09/13 07:05:44;;;;;;;31.33;25.52;;;;;;;20.71;76.51;101395.75;5024657;28;20071;-66
2023/09/13 07:08:09;;;;;;;42.08;32.25;;;;;;;20.63;76.56;101394.47;5025989;28;20053;-71
2023/09/13 07:10:34;;;;;;;41.05;29.65;;;;;;;20.64;76.74;101398.97;5030615;28;20045;-70
2023/09/13 07:13:02;;;;;;;35.72;27.00;;;;;;;20.73;76.98;101408.41;5030108;28;20683;-70
2023/09/13 07:15:28;;;;;;;30.30;24.00;;;;;;;20.79;76.81;101401.53;5027700;28;20079;-70
2023/09/13 07:17:53;;;;;;;40.75;29.83;;;;;;;20.72;76.52;101409.56;5015266;28;20038;-70
2023/09/13 07:20:19;;;;;;;36.67;27.35;;;;;;;20.78;76.68;101407.47;5020151;28;20053;-70
2023/09/13 07:22:44;;;;;;;34.28;26.23;;;;;;;20.83;76.50;101404.59;5019608;28;20029;-70
2023/09/13 07:25:09;;;;;;;45.42;32.28;;;;;;;20.75;76.56;101397.66;5029303;28;20048;-71
2023/09/13 07:27:38;;;;;;;41.63;31.27;;;;;;;;;;5029282;28;20096;-70
2023/09/13 07:30:09;;;;;;;40.35;31.38;;;;;;;20.79;76.88;101415.66;5027433;28;20029;-71
2023/09/13 07:32:34;;;;;;;36.93;29.00;;;;;;;20.86;76.52;101414.41;5030813;28;20400;-71
2023/09/13 07:35:00;;;;;;;38.55;27.58;;;;;;;20.84;76.50;101411.91;5028685;28;20021;-72
2023/09/13 07:37:29;;;;;;;36.90;25.90;;;;;;;20.93;76.82;101417.66;5029581;28;20179;-73
2023/09/13 07:39:54;;;;;;;34.83;26.15;;;;;;;20.89;76.38;101419.44;5018612;28;20042;-73
2023/09/13 07:42:20;;;;;;;32.83;24.77;;;;;;;20.93;76.78;101423.31;5009935;28;20121;-73
2023/09/13 07:44:45;;;;;;;36.08;26.70;;;;;;;20.88;76.46;101423.41;5014834;28;20018;-72
2023/09/13 07:47:11;;;;;;;35.55;27.25;;;;;;;20.82;76.40;101423.47;5030844;28;20417;-68
2023/09/13 07:49:36;;;;;;;28.98;23.00;;;;;;;20.87;76.72;101422.56;5025421;28;20025;-73
2023/09/13 07:52:01;;;;;;;26.60;22.13;;;;;;;20.94;76.98;101424.97;5014241;28;20436;-71
2023/09/13 07:54:27;;;;;;;24.75;17.58;;;;;;;20.78;75.32;101444.97;5022096;28;20617;-71
2023/09/13 07:56:52;;;;;;;15.30;11.68;;;;;;;20.74;75.69;101462.84;5016207;28;20029;-73
2023/09/13 07:59:18;;;;;;;9.68;7.05;;;;;;;20.56;73.92;101467.38;5016924;28;20650;-71
2023/09/13 08:01:44;;;;;;;11.27;7.97;;;;;;;20.55;74.87;101474.13;5030568;28;20030;-72
2023/09/13 08:04:09;;;;;;;7.40;5.38;;;;;;;20.51;73.85;101475.88;5028164;28;20468;-72
2023/09/13 08:06:35;;;;;;;5.03;3.40;;;;;;;20.49;73.64;101478.19;5028866;28;20388;-70
2023/09/13 08:09:00;;;;;;;3.50;2.90;;;;;;;20.46;73.80;101484.41;5028901;28;20122;-72
2023/09/13 08:11:25;;;;;;;3.70;3.10;;;;;;;20.47;73.63;101475.63;5023347;28;20498;-71
2023/09/13 08:13:51;;;;;;;2.33;2.00;;;;;;;20.34;73.11;101491.31;5025909;28;20037;-71
2023/09/13 08:16:16;;;;;;;3.75;2.75;;;;;;;20.41;73.07;101496.59;5015650;28;20073;-71
2023/09/13 08:18:41;;;;;;;2.72;1.95;;;;;;;20.41;71.88;101505.06;5024833;28;20101;-71
2023/09/13 08:21:07;;;;;;;1.88;1.40;;;;;;;20.39;71.01;101504.50;5029774;28;20433;-71
2023/09/13 08:23:33;;;;;;;1.75;1.10;;;;;;;20.30;71.25;101518.44;5028015;28;20072;-71
2023/09/13 08:25:58;;;;;;;2.20;1.10;;;;;;;20.32;71.01;101513.34;5029457;28;20029;-73
2023/09/13 08:28:24;;;;;;;2.13;1.38;;;;;;;20.33;70.92;101522.66;5026880;28;20029;-70
2023/09/13 08:30:49;;;;;;;1.52;1.10;;;;;;;20.33;70.48;101526.31;5017744;28;20177;-70
2023/09/13 08:33:16;;;;;;;2.80;1.60;;;;;;;20.37;70.55;101536.97;5016242;28;20105;-71
2023/09/13 08:35:42;;;;;;;1.50;0.90;;;;;;;20.31;70.55;101536.19;5030398;28;20033;-71
2023/09/13 08:38:07;;;;;;;2.70;1.10;;;;;;;20.20;69.17;101543.97;5032075;28;20373;-71
2023/09/13 08:40:33;;;;;;;2.47;1.23;;;;;;;20.22;70.88;101552.13;5031669;28;20366;-67
2023/09/13 08:42:59;;;;;;;2.08;1.10;;;;;;;20.13;69.48;101551.94;5033562;28;20151;-71
2023/09/13 08:45:25;;;;;;;1.25;0.68;;;;;;;20.17;69.01;101572.75;5032413;28;20380;-70
2023/09/13 08:47:55;;;;;;;1.35;0.90;;;;;;;20.09;69.64;101579.06;5023842;28;20026;-70
2023/09/13 08:50:26;;;;;;;2.42;0.80;;;;;;;20.14;69.85;101581.81;5031283;28;20047;-63
2023/09/13 08:52:53;;;;;;;1.05;0.80;;;;;;;20.13;68.63;101579.28;5031532;28;20041;-69
2023/09/13 08:55:20;;;;;;;1.30;0.80;;;;;;;20.04;68.06;101584.72;5031998;28;20353;-68
2023/09/13 08:57:47;;;;;;;1.83;1.00;;;;;;;20.08;68.83;101586.66;5031440;28;20037;-70
2023/09/13 09:00:14;;;;;;;1.23;0.80;;;;;;;20.10;68.15;101603.28;5031998;28;20025;-69
2023/09/13 09:02:42;;;;;;;1.58;0.90;;;;;;;20.16;67.84;101602.09;5033017;28;20061;-69
2023/09/13 09:05:11;;;;;;;1.10;0.82;;;;;;;20.23;68.20;101613.81;5030525;28;20365;-69
2023/09/13 09:07:38;;;;;;;0.98;0.65;;;;;;;20.14;66.67;101611.97;5012709;28;20052;-69
2023/09/13 09:10:11;;;;;;;0.80;0.80;;;;;;;20.10;66.51;101618.19;5013854;28;20432;-70
2023/09/13 09:12:41;;;;;;;1.75;0.80;;;;;;;20.16;66.91;101613.34;5012271;28;20034;-70
2023/09/13 09:15:08;;;;;;;1.50;0.93;;;;;;;20.08;66.71;101625.25;5013436;28;20033;-70
2023/09/13 09:17:35;;;;;;;1.17;0.80;;;;;;;20.08;67.20;101626.13;5013050;28;20041;-69
2023/09/13 09:20:00;;;;;;;2.03;1.00;;;;;;;20.09;67.03;101624.97;5017633;28;20538;-70
2023/09/13 09:22:29;;;;;;;1.98;0.90;;;;;;;20.08;67.04;101636.53;5025400;28;20033;-70
2023/09/13 09:24:54;;;;;;;1.30;0.95;;;;;;;20.10;66.83;101639.91;5013426;28;20022;-70
2023/09/13 09:27:20;;;;;;;1.83;0.82;;;;;;;20.10;66.42;101634.28;5016188;28;20385;-70
2023/09/13 09:29:46;;;;;;;2.90;0.98;;;;;;;20.06;65.84;101633.19;5013214;28;20049;-69
2023/09/13 09:32:12;;;;;;;1.52;1.00;;;;;;;20.12;66.07;101654.53;5013189;28;20105;-70
2023/09/13 09:34:40;;;;;;;1.67;0.95;;;;;;;20.09;65.51;101655.97;5012634;28;21002;-70
2023/09/13 09:37:07;;;;;;;1.92;1.10;;;;;;;20.08;64.99;101664.72;5013117;28;20040;-70
2023/09/13 09:39:41;;;;;;;2.60;0.90;;;;;;;20.00;65.35;101652.16;5012426;28;20373;-70
2023/09/13 09:42:06;;;;;;;2.05;0.90;;;;;;;20.05;65.35;101654.06;5011814;28;20393;-70
2023/09/13 09:44:32;;;;;;;2.03;1.10;;;;;;;19.95;64.10;101666.25;5016160;28;20030;-70
2023/09/13 09:46:58;;;;;;;1.20;0.95;;;;;;;19.96;63.97;101662.28;5011510;28;20026;-70
2023/09/13 09:49:24;;;;;;;1.50;0.85;;;;;;;19.94;64.51;101669.38;5019294;28;20030;-70
2023/09/13 09:51:50;;;;;;;2.33;1.02;;;;;;;19.93;64.68;101676.16;5012599;28;20022;-70
2023/09/13 09:54:15;;;;;;;1.65;0.85;;;;;;;20.05;64.91;101676.59;5012960;28;20088;-69
2023/09/13 09:56:41;;;;;;;2.20;1.10;;;;;;;20.05;64.55;101669.00;5011448;28;20032;-70
2023/09/13 09:59:06;;;;;;;1.52;1.10;;;;;;;20.09;64.50;101677.69;5025671;28;20480;-70
2023/09/13 10:01:31;;;;;;;1.27;0.90;;;;;;;20.13;64.23;101675.97;5030995;28;20045;-69
2023/09/13 10:04:08;;;;;;;2.78;0.93;;;;;;;20.21;64.77;101666.00;5032639;28;20384;-69
2023/09/13 10:06:33;;;;;;;2.50;1.00;;;;;;;20.23;63.58;101663.72;5017891;28;20068;-69
2023/09/13 10:08:59;;;;;;;1.33;0.85;;;;;;;20.41;64.26;101662.97;5011511;28;20077;-70
2023/09/13 10:11:28;;;;;;;1.55;1.05;;;;;;;20.49;63.64;101684.06;5012510;28;20030;-70
2023/09/13 10:13:54;;;;;;;1.73;0.98;;;;;;;20.51;62.96;101681.75;5012444;28;20063;-70
2023/09/13 10:16:19;;;;;;;2.25;1.08;;;;;;;20.59;63.61;101678.28;5011565;28;20056;-70
2023/09/13 10:18:48;;;;;;;1.45;1.17;;;;;;;20.59;63.20;101686.72;5012523;28;20037;-70
2023/09/13 10:21:16;;;;;;;2.40;1.25;;;;;;;20.71;63.05;101687.16;5013095;28;20077;-70
2023/09/13 10:23:44;;;;;;;2.10;1.20;;;;;;;20.75;62.97;101691.06;5015216;28;20093;-70
2023/09/13 10:26:13;;;;;;;1.55;0.90;;;;;;;20.93;63.41;101700.69;5015892;28;20025;-70
2023/09/13 10:29:01;;;;;;;3.67;1.23;;;;;;;20.99;62.69;101690.19;5012437;28;20057;-71
2023/09/13 10:31:34;;;;;;;3.38;1.10;;;;;;;21.11;61.59;101704.69;5008046;28;20099;-70
2023/09/13 10:34:04;;;;;;;1.35;1.00;;;;;;;21.18;60.63;101704.31;5012930;28;20108;-70
2023/09/13 10:36:38;;;;;;;3.33;1.35;;;;;;;21.22;60.70;101706.25;5013045;28;20385;-70
2023/09/13 10:39:08;;;;;;;3.95;1.40;;;;;;;21.29;60.37;101720.78;5012899;28;20172;-70
2023/09/13 10:41:41;;;;;;;2.17;1.13;;;;;;;21.21;60.81;101727.13;5024600;28;20063;-70
2023/09/13 10:44:08;;;;;;;2.03;1.27;;;;;;;21.16;61.22;101720.72;5018415;28;20044;-71
2023/09/13 10:46:33;;;;;;;3.70;1.45;;;;;;;21.10;60.23;101725.59;5012086;28;20034;-70
2023/09/13 10:49:02;;;;;;;1.13;0.90;;;;;;;20.97;60.07;101735.63;5012252;28;20125;-70
2023/09/13 10:51:32;;;;;;;2.17;0.95;;;;;;;21.02;61.38;101737.56;5010809;28;20144;-70
2023/09/13 10:54:01;;;;;;;1.83;1.00;;;;;;;21.08;61.56;101739.19;5011062;28;20064;-69
2023/09/13 10:56:27;;;;;;;1.77;1.02;;;;;;;21.08;60.54;101744.81;5022766;28;20125;-70
2023/09/13 10:58:53;;;;;;;2.35;1.00;;;;;;;21.05;60.79;101739.78;5027490;28;20104;-69
2023/09/13 11:01:20;;;;;;;1.75;1.40;;;;;;;20.96;60.54;101748.06;5021165;28;20025;-70
2023/09/13 11:03:45;;;;;;;2.40;1.00;;;;;;;21.00;61.29;101748.31;5029560;28;20063;-70
2023/09/13 11:06:11;;;;;;;1.08;0.90;;;;;;;20.90;60.16;101748.44;5025970;28;20061;-70
2023/09/13 11:08:36;;;;;;;2.08;1.10;;;;;;;20.84;60.22;101748.50;5028600;28;20095;-70
2023/09/13 11:11:14;;;;;;;3.38;1.08;;;;;;;20.82;60.99;101749.94;5011325;28;20092;-68
2023/09/13 11:13:40;;;;;;;1.88;1.02;;;;;;;20.85;60.33;101752.16;5009823;28;20026;-71